createdAt,value
2023-02-22T00:01:35.615Z,100.00
2023-02-22T00:04:06.560Z,100.00
2023-02-22T00:06:36.590Z,100.00
2023-02-22T00:09:09.444Z,100.00
2023-02-22T00:11:39.446Z,100.00
2023-02-22T00:14:09.105Z,100.00
2023-02-22T00:16:38.461Z,100.00
2023-02-22T00:19:07.867Z,100.00
2023-02-22T00:21:37.413Z,100.00
2023-02-22T00:24:23.304Z,100.00
2023-02-22T00:26:55.591Z,100.00
2023-02-22T00:29:25.844Z,100.00
2023-02-22T00:31:55.230Z,100.00
2023-02-22T00:34:25.301Z,100.00
2023-02-22T00:36:54.765Z,100.00
2023-02-22T00:39:25.288Z,100.00
2023-02-22T00:41:55.775Z,100.00
2023-02-22T00:44:25.433Z,100.00
2023-02-22T00:46:57.823Z,100.00
2023-02-22T00:49:27.309Z,100.00
2023-02-22T00:51:56.753Z,100.00
2023-02-22T00:54:28.086Z,100.00
2023-02-22T00:56:58.302Z,100.00
2023-02-22T00:59:31.259Z,100.00
2023-02-22T01:02:00.345Z,100.00
2023-02-22T01:04:30.331Z,100.00
2023-02-22T01:07:00.697Z,100.00
2023-02-22T01:09:31.313Z,100.00
2023-02-22T01:12:00.460Z,100.00
2023-02-22T01:14:30.232Z,100.00
2023-02-22T01:16:59.596Z,100.00
2023-02-22T01:19:29.218Z,100.00
2023-02-22T01:21:58.951Z,100.00
2023-02-22T01:24:28.239Z,100.00
2023-02-22T01:26:58.728Z,100.00
2023-02-22T01:29:27.953Z,100.00
2023-02-22T01:31:59.331Z,100.00
2023-02-22T01:34:30.250Z,100.00
2023-02-22T01:36:59.412Z,100.00
2023-02-22T01:39:28.600Z,100.00
2023-02-22T01:41:59.298Z,100.00
2023-02-22T01:44:32.158Z,100.00
2023-02-22T01:47:03.328Z,100.00
2023-02-22T01:49:37.852Z,100.00
2023-02-22T01:52:13.245Z,100.00
2023-02-22T01:54:47.304Z,100.00
2023-02-22T01:57:23.286Z,100.00
2023-02-22T01:59:57.920Z,100.00
2023-02-22T02:02:27.895Z,100.00
2023-02-22T02:04:59.676Z,100.00
2023-02-22T02:07:29.716Z,100.00
2023-02-22T02:10:01.366Z,100.00
2023-02-22T02:12:35.975Z,100.00
2023-02-22T02:15:23.106Z,100.00
2023-02-22T02:17:56.731Z,100.00
2023-02-22T02:20:31.484Z,100.00
2023-02-22T02:23:06.964Z,100.00
2023-02-22T02:26:03.942Z,100.00
2023-02-22T02:29:08.599Z,100.00
2023-02-22T02:32:28.447Z,100.00
2023-02-22T02:35:05.319Z,100.00
2023-02-22T02:37:42.326Z,100.00
2023-02-22T02:40:21.559Z,100.00
2023-02-22T02:42:59.674Z,100.00
2023-02-22T02:45:34.239Z,100.00
2023-02-22T02:48:05.343Z,100.00
2023-02-22T02:50:42.615Z,100.00
2023-02-22T02:53:15.038Z,100.00
2023-02-22T02:55:45.890Z,100.00
2023-02-22T02:58:20.131Z,100.00
2023-02-22T03:00:53.513Z,100.00
2023-02-22T03:03:49.877Z,100.00
2023-02-22T03:06:44.326Z,100.00
2023-02-22T03:09:21.033Z,100.00
2023-02-22T03:12:01.562Z,100.00
2023-02-22T03:14:42.483Z,100.00
2023-02-22T03:17:23.760Z,100.00
2023-02-22T03:19:59.951Z,100.00
2023-02-22T03:22:34.678Z,100.00
2023-02-22T03:25:09.184Z,100.00
2023-02-22T03:27:43.840Z,100.00
2023-02-22T03:30:19.726Z,100.00
2023-02-22T03:32:53.801Z,100.00
2023-02-22T03:35:27.044Z,100.00
2023-02-22T03:38:02.171Z,100.00
2023-02-22T03:40:35.793Z,100.00
2023-02-22T03:43:08.997Z,100.00
2023-02-22T03:45:44.210Z,100.00
2023-02-22T03:48:21.004Z,100.00
2023-02-22T03:50:51.956Z,100.00
2023-02-22T03:53:24.330Z,100.00
2023-02-22T03:55:58.007Z,100.00
2023-02-22T03:58:32.943Z,100.00
2023-02-22T04:01:02.615Z,100.00
2023-02-22T04:03:32.115Z,100.00
2023-02-22T04:06:01.430Z,100.00
2023-02-22T04:08:32.922Z,100.00
2023-02-22T04:11:02.213Z,100.00
2023-02-22T04:13:33.200Z,100.00
2023-02-22T04:16:02.445Z,100.00
2023-02-22T04:18:31.555Z,100.00
2023-02-22T04:21:02.672Z,100.00
2023-02-22T04:23:44.351Z,100.00
2023-02-22T04:26:14.912Z,100.00
2023-02-22T04:28:47.453Z,100.00
2023-02-22T04:31:19.758Z,100.00
2023-02-22T04:33:49.362Z,100.00
2023-02-22T04:36:22.277Z,100.00
2023-02-22T04:38:53.093Z,100.00
2023-02-22T04:41:25.048Z,100.00
2023-02-22T04:43:54.792Z,100.00
2023-02-22T04:46:25.962Z,100.00
2023-02-22T04:48:55.773Z,100.00
2023-02-22T04:51:27.810Z,100.00
2023-02-22T04:54:06.937Z,100.00
2023-02-22T04:56:37.593Z,100.00
2023-02-22T04:59:08.478Z,100.00
2023-02-22T05:01:38.502Z,100.00
2023-02-22T05:04:09.072Z,100.00
2023-02-22T05:06:38.575Z,100.00
2023-02-22T05:09:09.190Z,100.00
2023-02-22T05:11:38.662Z,100.00
2023-02-22T05:14:07.988Z,100.00
2023-02-22T05:16:37.233Z,100.00
2023-02-22T05:19:06.516Z,100.00
2023-02-22T05:21:35.820Z,100.00
2023-02-22T05:24:05.416Z,100.00
2023-02-22T05:26:37.024Z,100.00
2023-02-22T05:29:06.732Z,100.00
2023-02-22T05:31:36.167Z,100.00
2023-02-22T05:34:06.208Z,100.00
2023-02-22T05:36:35.449Z,100.00
2023-02-22T05:39:05.485Z,100.00
2023-02-22T05:41:34.771Z,100.00
2023-02-22T05:44:06.530Z,100.00
2023-02-22T05:46:35.963Z,100.00
2023-02-22T05:49:05.424Z,100.00
2023-02-22T05:51:37.611Z,100.00
2023-02-22T05:54:06.707Z,100.00
2023-02-22T05:56:36.472Z,100.00
2023-02-22T05:59:07.321Z,100.00
2023-02-22T06:01:36.924Z,100.00
2023-02-22T06:04:06.607Z,100.00
2023-02-22T06:06:36.151Z,100.00
2023-02-22T06:09:06.275Z,100.00
2023-02-22T06:11:35.567Z,100.00
2023-02-22T06:14:06.313Z,100.00
2023-02-22T06:16:35.602Z,100.00
2023-02-22T06:19:05.768Z,100.00
2023-02-22T06:21:35.258Z,100.00
2023-02-22T06:24:05.335Z,100.00
2023-02-22T06:26:35.062Z,100.00
2023-02-22T06:29:06.066Z,100.00
2023-02-22T06:31:36.827Z,100.00
2023-02-22T06:34:06.587Z,100.00
2023-02-22T06:36:35.583Z,100.00
2023-02-22T06:39:05.740Z,100.00
2023-02-22T06:41:38.764Z,100.00
2023-02-22T06:44:08.250Z,100.00
2023-02-22T06:46:38.975Z,100.00
2023-02-22T06:49:08.191Z,100.00
2023-02-22T06:51:38.875Z,100.00
2023-02-22T06:54:08.223Z,100.00
2023-02-22T06:56:38.005Z,100.00
2023-02-22T06:59:07.037Z,100.00
2023-02-22T07:01:36.492Z,100.00
2023-02-22T07:04:07.238Z,100.00
2023-02-22T07:06:37.124Z,100.00
2023-02-22T07:09:07.238Z,100.00
2023-02-22T07:11:40.188Z,100.00
2023-02-22T07:14:09.945Z,100.00
2023-02-22T07:16:39.821Z,100.00
2023-02-22T07:19:11.079Z,100.00
2023-02-22T07:21:40.761Z,100.00
2023-02-22T07:24:10.607Z,98.68
2023-02-22T07:26:42.200Z,99.12
2023-02-22T07:29:12.661Z,100.00
2023-02-22T07:31:42.056Z,100.00
2023-02-22T07:34:13.190Z,100.00
2023-02-22T07:36:42.523Z,100.00
2023-02-22T07:39:12.350Z,98.94
2023-02-22T07:41:41.707Z,93.12
2023-02-22T07:44:24.697Z,90.73
2023-02-22T07:46:54.654Z,91.69
2023-02-22T07:49:25.582Z,96.97
2023-02-22T07:51:55.123Z,95.73
2023-02-22T07:54:24.334Z,99.91
2023-02-22T07:56:53.981Z,100.00
2023-02-22T07:59:23.575Z,97.75
2023-02-22T08:01:53.769Z,96.90
2023-02-22T08:04:24.860Z,100.00
2023-02-22T08:06:54.677Z,100.00
2023-02-22T08:09:24.804Z,100.00
2023-02-22T08:11:54.266Z,100.00
2023-02-22T08:14:23.833Z,100.00
2023-02-22T08:16:53.367Z,100.00
2023-02-22T08:19:23.009Z,100.00
2023-02-22T08:21:53.816Z,100.00
2023-02-22T08:24:23.436Z,99.52
2023-02-22T08:26:52.907Z,96.43
2023-02-22T08:29:23.018Z,92.54
2023-02-22T08:31:54.267Z,87.11
2023-02-22T08:34:24.933Z,82.06
2023-02-22T08:36:55.965Z,83.49
2023-02-22T08:39:25.289Z,79.76
2023-02-22T08:41:54.735Z,77.71
2023-02-22T08:44:24.363Z,74.62
2023-02-22T08:46:54.056Z,76.90
2023-02-22T08:49:23.384Z,73.00
2023-02-22T08:51:54.210Z,69.62
2023-02-22T08:54:23.949Z,73.24
2023-02-22T08:56:53.502Z,72.20
2023-02-22T08:59:23.138Z,75.26
2023-02-22T09:01:52.552Z,75.00
2023-02-22T09:04:22.430Z,71.58
2023-02-22T09:06:52.017Z,72.03
2023-02-22T09:09:23.811Z,67.69
2023-02-22T09:11:53.801Z,66.46
2023-02-22T09:14:23.451Z,66.14
2023-02-22T09:16:52.688Z,63.71
2023-02-22T09:19:22.258Z,62.56
2023-02-22T09:21:55.263Z,62.91
2023-02-22T09:24:26.513Z,61.97
2023-02-22T09:26:56.282Z,63.58
2023-02-22T09:29:27.973Z,63.10
2023-02-22T09:31:58.328Z,63.25
2023-02-22T09:34:29.799Z,61.93
2023-02-22T09:36:59.419Z,62.37
2023-02-22T09:39:30.446Z,59.90
2023-02-22T09:42:10.540Z,59.97
2023-02-22T09:44:49.471Z,60.39
2023-02-22T09:47:32.392Z,59.41
2023-02-22T09:50:10.958Z,58.59
2023-02-22T09:52:45.226Z,57.94
2023-02-22T09:55:28.908Z,56.30
2023-02-22T09:58:01.582Z,56.59
2023-02-22T10:00:34.915Z,57.91
2023-02-22T10:03:17.590Z,55.81
2023-02-22T10:05:54.184Z,53.44
2023-02-22T10:08:31.182Z,54.18
2023-02-22T10:11:11.798Z,54.39
2023-02-22T10:13:53.218Z,53.49
2023-02-22T10:16:28.888Z,52.85
2023-02-22T10:19:17.911Z,51.65
2023-02-22T10:22:07.047Z,50.90
2023-02-22T10:24:46.616Z,49.50
2023-02-22T10:27:20.340Z,49.88
2023-02-22T10:29:54.205Z,50.52
2023-02-22T10:32:26.890Z,47.96
2023-02-22T10:34:56.680Z,46.48
2023-02-22T10:37:30.024Z,48.61
2023-02-22T10:40:06.538Z,48.76
2023-02-22T10:42:37.358Z,46.97
2023-02-22T10:45:15.446Z,44.43
2023-02-22T10:47:45.908Z,44.57
2023-02-22T10:50:16.664Z,44.34
2023-02-22T10:52:46.361Z,44.62
2023-02-22T10:55:17.514Z,43.62
2023-02-22T10:57:50.969Z,40.13
2023-02-22T11:00:26.487Z,36.76
2023-02-22T11:02:58.330Z,36.62
2023-02-22T11:05:36.958Z,37.64
2023-02-22T11:08:25.965Z,37.73
2023-02-22T11:10:57.192Z,37.48
2023-02-22T11:13:31.091Z,35.93
2023-02-22T11:16:03.344Z,36.92
2023-02-22T11:18:36.296Z,35.90
2023-02-22T11:21:10.384Z,40.49
2023-02-22T11:23:44.684Z,39.29
2023-02-22T11:26:19.274Z,37.43
2023-02-22T11:28:56.260Z,40.67
2023-02-22T11:31:30.287Z,41.15
2023-02-22T11:34:01.593Z,42.39
2023-02-22T11:36:34.076Z,44.45
2023-02-22T11:39:05.834Z,42.36
2023-02-22T11:41:35.586Z,42.16
2023-02-22T11:44:24.786Z,44.07
2023-02-22T11:46:56.918Z,42.41
2023-02-22T11:49:35.331Z,40.91
2023-02-22T11:52:18.026Z,42.67
2023-02-22T11:55:36.458Z,39.45
2023-02-22T11:58:38.030Z,39.85
2023-02-22T12:01:18.392Z,38.50
2023-02-22T12:04:09.030Z,38.69
2023-02-22T12:06:52.084Z,36.92
2023-02-22T12:09:28.712Z,36.03
2023-02-22T12:12:09.366Z,34.82
2023-02-22T12:14:49.684Z,34.11
2023-02-22T12:17:43.601Z,37.76
2023-02-22T12:20:24.789Z,42.50
2023-02-22T12:23:02.062Z,44.58
2023-02-22T12:25:35.512Z,46.41
2023-02-22T12:28:24.286Z,48.05
2023-02-22T12:31:05.087Z,49.88
2023-02-22T12:33:51.416Z,50.77
2023-02-22T12:36:26.248Z,51.06
2023-02-22T12:39:07.541Z,50.72
2023-02-22T12:41:45.120Z,51.13
2023-02-22T12:44:20.473Z,47.57
2023-02-22T12:47:06.751Z,42.19
2023-02-22T12:49:44.032Z,36.69
2023-02-22T12:52:22.251Z,38.39
2023-02-22T12:54:59.737Z,39.21
2023-02-22T12:57:44.550Z,38.20
2023-02-22T13:00:23.294Z,40.98
2023-02-22T13:03:02.615Z,45.32
2023-02-22T13:05:38.265Z,46.03
2023-02-22T13:08:28.247Z,43.90
2023-02-22T13:11:12.944Z,39.33
2023-02-22T13:13:55.217Z,36.73
2023-02-22T13:16:36.938Z,40.55
2023-02-22T13:19:18.829Z,35.50
2023-02-22T13:21:56.816Z,34.01
2023-02-22T13:24:30.396Z,38.42
2023-02-22T13:27:05.542Z,41.11
2023-02-22T13:29:39.716Z,43.19
2023-02-22T13:32:32.286Z,44.22
2023-02-22T13:35:21.664Z,46.48
2023-02-22T13:38:09.753Z,47.31
2023-02-22T13:41:14.787Z,48.31
2023-02-22T13:44:01.256Z,48.48
2023-02-22T13:47:03.039Z,50.31
2023-02-22T13:49:53.985Z,50.46
2023-02-22T13:52:26.764Z,50.81
2023-02-22T13:55:01.651Z,51.14
2023-02-22T13:57:38.312Z,51.34
2023-02-22T14:00:44.478Z,51.34
2023-02-22T14:03:40.714Z,51.79
2023-02-22T14:06:41.856Z,52.25
2023-02-22T14:09:20.055Z,52.72
2023-02-22T14:11:57.994Z,53.03
2023-02-22T14:14:27.776Z,53.60
2023-02-22T14:17:24.450Z,55.19
2023-02-22T14:20:21.057Z,56.07
2023-02-22T14:22:53.155Z,57.13
2023-02-22T14:25:39.348Z,57.79
2023-02-22T14:28:41.511Z,60.09
2023-02-22T14:31:29.431Z,60.18
2023-02-22T14:34:13.749Z,61.84
2023-02-22T14:36:52.572Z,65.12
2023-02-22T14:39:32.135Z,67.64
2023-02-22T14:42:07.100Z,72.28
2023-02-22T14:44:41.688Z,76.43
2023-02-22T14:47:21.080Z,75.38
2023-02-22T14:49:54.920Z,75.59
2023-02-22T14:52:29.187Z,77.77
2023-02-22T14:55:06.131Z,80.31
2023-02-22T14:57:46.122Z,79.17
2023-02-22T15:00:22.995Z,77.32
2023-02-22T15:02:57.447Z,77.38
2023-02-22T15:05:35.392Z,81.80
2023-02-22T15:08:07.850Z,82.29
2023-02-22T15:10:43.073Z,84.15
2023-02-22T15:13:23.865Z,86.34
2023-02-22T15:16:01.881Z,87.57
2023-02-22T15:18:35.438Z,90.58
2023-02-22T15:21:08.505Z,94.49
2023-02-22T15:23:44.177Z,93.39
2023-02-22T15:26:24.175Z,92.23
2023-02-22T15:28:58.036Z,95.97
2023-02-22T15:31:34.847Z,100.00
2023-02-22T15:34:24.465Z,100.00
2023-02-22T15:36:57.757Z,100.00
2023-02-22T15:39:29.833Z,100.00
2023-02-22T15:42:08.004Z,100.00
2023-02-22T15:44:39.371Z,100.00
2023-02-22T15:47:14.217Z,100.00
2023-02-22T15:49:44.186Z,100.00
2023-02-22T15:52:20.995Z,100.00
2023-02-22T15:54:53.582Z,100.00
2023-02-22T15:57:25.501Z,100.00
2023-02-22T15:59:58.401Z,100.00
2023-02-22T16:02:38.999Z,100.00
2023-02-22T16:05:12.962Z,100.00
2023-02-22T16:07:46.271Z,100.00
2023-02-22T16:10:25.542Z,100.00
2023-02-22T16:13:14.400Z,100.00
2023-02-22T16:15:57.524Z,100.00
2023-02-22T16:18:33.881Z,100.00
2023-02-22T16:21:06.472Z,100.00
2023-02-22T16:23:46.260Z,100.00
2023-02-22T16:26:28.757Z,100.00
2023-02-22T16:29:00.017Z,100.00
2023-02-22T16:31:33.869Z,100.00
2023-02-22T16:34:06.510Z,100.00
2023-02-22T16:36:41.090Z,100.00
2023-02-22T16:39:15.369Z,100.00
2023-02-22T16:41:44.468Z,100.00
2023-02-22T16:44:14.607Z,100.00
2023-02-22T16:46:44.184Z,100.00
2023-02-22T16:49:15.356Z,100.00
2023-02-22T16:51:47.866Z,100.00
2023-02-22T16:54:25.694Z,100.00
2023-02-22T16:56:57.677Z,100.00
2023-02-22T16:59:27.298Z,100.00
2023-02-22T17:01:58.843Z,100.00
2023-02-22T17:04:29.880Z,100.00
2023-02-22T17:07:00.246Z,100.00
2023-02-22T17:09:30.067Z,100.00
2023-02-22T17:11:59.563Z,100.00
2023-02-22T17:14:33.674Z,100.00
2023-02-22T17:17:05.803Z,100.00
2023-02-22T17:19:37.760Z,100.00
2023-02-22T17:22:11.265Z,100.00
2023-02-22T17:24:41.208Z,100.00
2023-02-22T17:27:10.832Z,100.00
2023-02-22T17:29:42.285Z,100.00
2023-02-22T17:32:12.148Z,100.00
2023-02-22T17:34:43.250Z,100.00
2023-02-22T17:37:13.012Z,100.00
2023-02-22T17:39:42.482Z,100.00
2023-02-22T17:42:15.717Z,100.00
2023-02-22T17:44:45.228Z,100.00
2023-02-22T17:47:14.521Z,100.00
2023-02-22T17:49:45.584Z,100.00
2023-02-22T17:52:16.019Z,100.00
2023-02-22T17:54:45.482Z,100.00
2023-02-22T17:57:15.512Z,100.00
2023-02-22T17:59:44.759Z,100.00
2023-02-22T18:02:14.859Z,100.00
2023-02-22T18:04:46.350Z,100.00
2023-02-22T18:07:19.864Z,100.00
2023-02-22T18:09:49.663Z,100.00
2023-02-22T18:12:19.599Z,100.00
2023-02-22T18:14:49.279Z,100.00
2023-02-22T18:17:18.955Z,100.00
2023-02-22T18:19:49.720Z,100.00
2023-02-22T18:22:19.522Z,100.00
2023-02-22T18:24:49.427Z,100.00
2023-02-22T18:27:18.842Z,100.00
2023-02-22T18:29:49.254Z,100.00
2023-02-22T18:32:18.836Z,100.00
2023-02-22T18:34:50.017Z,100.00
2023-02-22T18:37:20.514Z,100.00
2023-02-22T18:39:51.007Z,100.00
2023-02-22T18:42:21.615Z,100.00
2023-02-22T18:44:52.045Z,100.00
2023-02-22T18:47:22.881Z,100.00
2023-02-22T18:49:58.082Z,100.00
2023-02-22T18:52:27.654Z,100.00
2023-02-22T18:54:57.049Z,100.00
2023-02-22T18:57:26.617Z,100.00
2023-02-22T18:59:58.661Z,100.00
2023-02-22T19:02:29.047Z,100.00
2023-02-22T19:05:03.965Z,100.00
2023-02-22T19:07:34.514Z,100.00
2023-02-22T19:10:04.252Z,100.00
2023-02-22T19:12:34.591Z,100.00
2023-02-22T19:15:04.682Z,100.00
2023-02-22T19:17:37.102Z,100.00
2023-02-22T19:20:12.094Z,100.00
2023-02-22T19:22:42.904Z,100.00
2023-02-22T19:25:14.356Z,100.00
2023-02-22T19:27:45.340Z,100.00
2023-02-22T19:30:17.385Z,100.00
2023-02-22T19:32:50.866Z,100.00
2023-02-22T19:35:27.238Z,100.00
2023-02-22T19:37:57.232Z,100.00
2023-02-22T19:40:27.723Z,100.00
2023-02-22T19:42:58.785Z,100.00
2023-02-22T19:45:28.622Z,100.00
2023-02-22T19:47:58.442Z,100.00
2023-02-22T19:50:29.941Z,100.00
2023-02-22T19:52:59.496Z,100.00
2023-02-22T19:55:32.780Z,100.00
2023-02-22T19:58:02.902Z,100.00
2023-02-22T20:00:36.344Z,100.00
2023-02-22T20:03:07.747Z,100.00
2023-02-22T20:05:42.223Z,100.00
2023-02-22T20:08:12.128Z,98.23
2023-02-22T20:10:42.205Z,100.00
2023-02-22T20:13:12.632Z,98.13
2023-02-22T20:15:45.396Z,96.45
2023-02-22T20:18:17.068Z,96.40
2023-02-22T20:20:48.606Z,96.88
2023-02-22T20:23:18.210Z,96.04
2023-02-22T20:25:54.380Z,96.71
2023-02-22T20:28:25.486Z,97.63
2023-02-22T20:30:56.781Z,98.70
2023-02-22T20:33:26.838Z,98.76
2023-02-22T20:35:58.181Z,96.66
2023-02-22T20:38:29.220Z,93.16
2023-02-22T20:40:59.370Z,91.22
2023-02-22T20:43:29.082Z,88.07
2023-02-22T20:46:02.052Z,88.84
2023-02-22T20:48:32.355Z,88.83
2023-02-22T20:51:08.301Z,86.55
2023-02-22T20:53:39.585Z,86.65
2023-02-22T20:56:12.736Z,86.01
2023-02-22T20:58:42.383Z,88.71
2023-02-22T21:01:13.966Z,86.36
2023-02-22T21:03:44.690Z,88.39
2023-02-22T21:06:17.854Z,88.47
2023-02-22T21:08:51.550Z,89.74
2023-02-22T21:11:21.532Z,92.62
2023-02-22T21:13:51.950Z,93.50
2023-02-22T21:16:22.781Z,94.83
2023-02-22T21:18:54.167Z,92.84
2023-02-22T21:21:25.832Z,94.21
2023-02-22T21:23:57.159Z,95.49
2023-02-22T21:26:28.032Z,93.29
2023-02-22T21:29:00.778Z,93.82
2023-02-22T21:31:31.800Z,93.09
2023-02-22T21:34:04.254Z,97.92
2023-02-22T21:36:35.450Z,97.61
2023-02-22T21:39:09.282Z,95.97
2023-02-22T21:41:40.969Z,92.83
2023-02-22T21:44:10.751Z,93.63
2023-02-22T21:46:40.239Z,92.00
2023-02-22T21:49:09.685Z,94.91
2023-02-22T21:51:40.646Z,97.47
2023-02-22T21:54:13.164Z,97.45
2023-02-22T21:56:44.296Z,99.72
2023-02-22T21:59:16.337Z,100.00
2023-02-22T22:01:48.182Z,100.00
2023-02-22T22:04:19.969Z,100.00
2023-02-22T22:06:52.882Z,100.00
2023-02-22T22:09:23.766Z,100.00
2023-02-22T22:11:54.552Z,100.00
2023-02-22T22:14:25.410Z,99.73
2023-02-22T22:16:58.768Z,100.00
2023-02-22T22:19:29.246Z,100.00
2023-02-22T22:22:00.167Z,100.00
2023-02-22T22:24:32.012Z,100.00
2023-02-22T22:27:03.906Z,100.00
2023-02-22T22:29:34.553Z,100.00
2023-02-22T22:32:06.298Z,100.00
2023-02-22T22:34:38.015Z,96.98
2023-02-22T22:37:08.926Z,86.63
2023-02-22T22:39:39.050Z,82.70
2023-02-22T22:42:09.231Z,79.95
2023-02-22T22:44:42.173Z,78.93
2023-02-22T22:47:13.762Z,75.08
2023-02-22T22:49:43.826Z,73.65
2023-02-22T22:52:18.534Z,72.93
2023-02-22T22:54:47.624Z,72.52
2023-02-22T22:57:17.451Z,73.88
2023-02-22T22:59:47.264Z,73.83
2023-02-22T23:02:20.392Z,73.97
2023-02-22T23:04:51.767Z,72.28
2023-02-22T23:07:22.625Z,69.89
2023-02-22T23:09:52.287Z,71.63
2023-02-22T23:12:31.197Z,71.59
2023-02-22T23:15:02.457Z,71.21
2023-02-22T23:17:41.074Z,71.08
2023-02-22T23:20:12.432Z,70.91
2023-02-22T23:22:47.270Z,70.78
2023-02-22T23:25:18.376Z,72.51
2023-02-22T23:27:48.002Z,72.67
2023-02-22T23:30:18.824Z,74.97
2023-02-22T23:32:48.117Z,72.04
2023-02-22T23:35:19.303Z,73.87
2023-02-22T23:37:53.835Z,73.41
2023-02-22T23:40:26.074Z,72.06
2023-02-22T23:42:55.773Z,71.77
2023-02-22T23:45:25.600Z,71.86
2023-02-22T23:47:56.259Z,71.31
2023-02-22T23:50:27.002Z,69.27
2023-02-22T23:52:59.676Z,69.77
2023-02-22T23:55:31.631Z,69.23
2023-02-22T23:58:01.387Z,70.67
